| time (UTC) | temp C | wind direction | speed KPH | gust KPH | rain 1hr cm | rain 24hr cm | rain mn cm | humidity % | barometer mb |
| 20260508014636 | 17 | 11 | 1.6 | 1.6 | 0.00 | 0.20 | 0.20 | 58 | 1012.0 |
| 20260508014132 | 18 | 10 | 0.0 | 0.0 | 0.00 | 0.20 | 0.20 | 59 | 1011.8 |
| 20260508013628 | 18 | 11 | 0.0 | 1.6 | 0.00 | 0.20 | 0.20 | 51 | 1011.9 |
| 20260508013125 | 18 | 11 | 1.6 | 1.6 | 0.00 | 0.20 | 0.20 | 50 | 1011.9 |
| 20260508012623 | 18 | 359 | 1.6 | 3.2 | 0.00 | 0.20 | 0.20 | 51 | 1011.8 |
| 20260508012120 | 18 | 18 | 0.0 | 0.0 | 0.00 | 0.20 | 0.20 | 52 | 1012.0 |
| 20260508011618 | 18 | 18 | 0.0 | 0.0 | 0.00 | 0.20 | 0.20 | 54 | 1012.0 |
| 20260508011115 | 18 | 0 | 3.2 | 3.2 | 0.00 | 0.20 | 0.20 | 51 | 1011.9 |
| 20260508010612 | 18 | 56 | 0.0 | 0.0 | 0.00 | 0.20 | 0.20 | 52 | 1012.0 |
| 20260508010110 | 18 | 28 | 1.6 | 1.6 | 0.00 | 0.20 | 0.20 | 50 | 1012.4 |
| 20260508005606 | 19 | 5 | 0.0 | 0.0 | 0.00 | 0.20 | 0.20 | 51 | 1012.3 |
| 20260508005102 | 19 | 21 | 1.6 | 1.6 | 0.00 | 0.20 | 0.20 | 48 | 1012.3 |
| 20260508004558 | 19 | 55 | 0.0 | 0.0 | 0.00 | 0.20 | 0.20 | 51 | 1012.2 |
| 20260508004055 | 20 | 47 | 1.6 | 3.2 | 0.00 | 0.20 | 0.20 | 49 | 1012.3 |
| 20260508003552 | 20 | 67 | 1.6 | 1.6 | 0.00 | 0.20 | 0.20 | 47 | 1012.5 |
| 20260508003049 | 19 | 21 | 0.0 | 1.6 | 0.00 | 0.20 | 0.20 | 52 | 1012.3 |
| 20260508002545 | 20 | 112 | 4.8 | 4.8 | 0.00 | 0.20 | 0.20 | 49 | 1012.3 |
| 20260508002043 | 20 | 74 | 8.0 | 9.7 | 0.00 | 0.20 | 0.20 | 48 | 1012.3 |
| 20260508001538 | 20 | 124 | 6.4 | 9.7 | 0.00 | 0.20 | 0.20 | 48 | 1012.4 |
| 20260508001035 | 20 | 53 | 1.6 | 1.6 | 0.00 | 0.20 | 0.20 | 51 | 1012.5 |
| 20260508000531 | 19 | 68 | 1.6 | 1.6 | 0.00 | 0.20 | 0.20 | 50 | 1012.4 |
| 20260508000029 | 18 | 98 | 1.6 | 1.6 | 0.00 | 0.20 | 0.20 | 54 | 1012.4 |
| 20260507235525 | 18 | 63 | 0.0 | 0.0 | 0.00 | 0.20 | 0.20 | 53 | 1012.4 |
| 20260507235022 | 20 | 344 | 3.2 | 4.8 | 0.00 | 0.20 | 0.20 | 52 | 1012.3 |
| 20260507234519 | 20 | 92 | 3.2 | 3.2 | 0.00 | 0.20 | 0.20 | 49 | 1012.3 |
| 20260507234015 | 20 | 16 | 3.2 | 3.2 | 0.00 | 0.20 | 0.20 | 46 | 1012.4 |
| 20260507233512 | 20 | 32 | 1.6 | 1.6 | 0.00 | 0.20 | 0.20 | 47 | 1012.5 |
| 20260507233011 | 19 | 75 | 3.2 | 4.8 | 0.00 | 0.20 | 0.20 | 48 | 1012.4 |
| 20260507232507 | 20 | 9 | 1.6 | 3.2 | 0.00 | 0.20 | 0.20 | 46 | 1012.3 |
| 20260507232004 | 20 | 15 | 1.6 | 1.6 | 0.00 | 0.20 | 0.20 | 47 | 1012.5 |
| 20260507231500 | 20 | 21 | 0.0 | 0.0 | 0.00 | 0.20 | 0.20 | 48 | 1012.6 |
| 20260507230957 | 20 | 354 | 1.6 | 4.8 | 0.00 | 0.20 | 0.20 | 48 | 1012.6 |
| 20260507230454 | 19 | 18 | 1.6 | 1.6 | 0.00 | 0.20 | 0.20 | 52 | 1012.5 |
| 20260507225949 | 19 | 36 | 0.0 | 1.6 | 0.00 | 0.20 | 0.20 | 51 | 1012.5 |
| 20260507225446 | 20 | 80 | 3.2 | 4.8 | 0.00 | 0.20 | 0.20 | 47 | 1012.6 |
| 20260507224942 | 20 | 359 | 1.6 | 1.6 | 0.00 | 0.20 | 0.20 | 48 | 1012.6 |
| 20260507224438 | 20 | 55 | 6.4 | 9.7 | 0.00 | 0.20 | 0.20 | 48 | 1012.5 |
| 20260507223935 | 19 | 52 | 3.2 | 3.2 | 0.00 | 0.20 | 0.20 | 47 | 1012.8 |
| 20260507223431 | 20 | 348 | 1.6 | 3.2 | 0.00 | 0.20 | 0.20 | 52 | 1012.8 |
| 20260507222928 | 20 | 357 | 3.2 | 3.2 | 0.00 | 0.20 | 0.20 | 50 | 1012.9 |
| 20260507222425 | 19 | 291 | 1.6 | 3.2 | 0.00 | 0.20 | 0.20 | 51 | 1013.0 |
| 20260507221921 | 19 | 20 | 1.6 | 1.6 | 0.00 | 0.20 | 0.20 | 54 | 1012.9 |
| 20260507221418 | 19 | 351 | 3.2 | 4.8 | 0.00 | 0.20 | 0.20 | 53 | 1013.0 |
| 20260507220914 | 18 | 27 | 3.2 | 4.8 | 0.00 | 0.20 | 0.20 | 55 | 1013.4 |
| 20260507220412 | 18 | 4 | 1.6 | 3.2 | 0.00 | 0.20 | 0.20 | 56 | 1013.4 |
| 20260507215908 | 18 | 2 | 0.0 | 1.6 | 0.00 | 0.20 | 0.20 | 57 | 1013.3 |
| 20260507215405 | 18 | 30 | 0.0 | 0.0 | 0.00 | 0.20 | 0.20 | 57 | 1013.4 |
| 20260507214902 | 18 | 351 | 1.6 | 1.6 | 0.00 | 0.20 | 0.20 | 55 | 1013.1 |
| 20260507214400 | 18 | 355 | 1.6 | 1.6 | 0.00 | 0.20 | 0.20 | 55 | 1013.4 |
| 20260507213855 | 17 | 6 | 0.0 | 0.0 | 0.00 | 0.20 | 0.20 | 56 | 1013.4 |
| 20260507213352 | 17 | 340 | 1.6 | 3.2 | 0.00 | 0.20 | 0.20 | 61 | 1013.6 |
| 20260507212849 | 17 | 16 | 0.0 | 0.0 | 0.00 | 0.20 | 0.20 | 67 | 1013.5 |
| 20260507212345 | 16 | 249 | 1.6 | 3.2 | 0.00 | 0.20 | 0.20 | 63 | 1013.8 |
| 20260507211842 | 16 | 115 | 1.6 | 1.6 | 0.00 | 0.20 | 0.20 | 67 | 1013.9 |
| 20260507211339 | 15 | 127 | 3.2 | 4.8 | 0.00 | 0.20 | 0.20 | 67 | 1014.1 |
| 20260507210835 | 15 | 146 | 6.4 | 6.4 | 0.00 | 0.20 | 0.20 | 68 | 1013.9 |
| 20260507210332 | 14 | 169 | 3.2 | 4.8 | 0.00 | 0.20 | 0.20 | 72 | 1014.0 |
| 20260507205828 | 13 | 314 | 1.6 | 1.6 | 0.43 | 0.20 | 0.20 | 75 | 1014.1 |
| 20260507205326 | 13 | 54 | 9.7 | 11.3 | 0.43 | 0.20 | 0.20 | 74 | 1014.1 |
| 20260507204821 | 15 | 312 | 9.7 | 11.3 | 0.00 | 0.15 | 0.15 | 69 | 1014.5 |
| 20260507204319 | 16 | 347 | 17.7 | 22.5 | 0.00 | 0.15 | 0.15 | 58 | 1013.9 |
| 20260507203817 | 17 | 61 | 4.8 | 4.8 | 0.00 | 0.15 | 0.15 | 58 | 1013.5 |
| 20260507203315 | 17 | 21 | 4.8 | 4.8 | 0.00 | 0.15 | 0.15 | 58 | 1013.8 |
| 20260507202811 | 17 | 75 | 8.0 | 12.9 | 0.00 | 0.15 | 0.15 | 58 | 1013.5 |
| 20260507202307 | 17 | 75 | 12.9 | 16.1 | 0.00 | 0.15 | 0.15 | 57 | 1013.4 |
| 20260507201802 | 17 | 23 | 3.2 | 6.4 | 0.00 | 0.15 | 0.15 | 58 | 1013.4 |
| 20260507201258 | 17 | 43 | 9.7 | 11.3 | 0.00 | 0.15 | 0.15 | 58 | 1013.5 |
| 20260507200755 | 18 | 106 | 8.0 | 11.3 | 0.00 | 0.15 | 0.15 | 56 | 1013.4 |
| 20260507200251 | 18 | 54 | 3.2 | 6.4 | 0.00 | 0.15 | 0.15 | 57 | 1013.4 |
| 20260507195747 | 18 | 30 | 8.0 | 11.3 | 0.00 | 0.15 | 0.15 | 56 | 1013.6 |
| 20260507195245 | 18 | 89 | 6.4 | 11.3 | 0.00 | 0.15 | 0.15 | 56 | 1013.5 |
| 20260507194742 | 18 | 64 | 9.7 | 12.9 | 0.00 | 0.15 | 0.15 | 56 | 1013.6 |
| 20260507194238 | 18 | 11 | 9.7 | 14.5 | 0.00 | 0.15 | 0.15 | 56 | 1013.4 |
| 20260507193734 | 18 | 28 | 9.7 | 14.5 | 0.00 | 0.15 | 0.15 | 59 | 1013.3 |
| 20260507193231 | 18 | 4 | 4.8 | 6.4 | 0.00 | 0.15 | 0.15 | 62 | 1013.5 |
| 20260507192727 | 18 | 91 | 8.0 | 11.3 | 0.00 | 0.15 | 0.15 | 62 | 1013.5 |
| 20260507192224 | 18 | 93 | 8.0 | 11.3 | 0.00 | 0.15 | 0.15 | 60 | 1013.6 |
| 20260507191720 | 17 | 64 | 4.8 | 9.7 | 0.00 | 0.15 | 0.15 | 63 | 1013.6 |
| 20260507191218 | 17 | 89 | 3.2 | 3.2 | 0.00 | 0.15 | 0.15 | 62 | 1013.7 |
| 20260507190714 | 18 | 88 | 6.4 | 6.4 | 0.00 | 0.15 | 0.15 | 61 | 1013.7 |
| 20260507190213 | 17 | 61 | 4.8 | 4.8 | 0.00 | 0.15 | 0.15 | 63 | 1013.7 |
| 20260507185711 | 17 | 29 | 1.6 | 1.6 | 0.00 | 0.15 | 0.15 | 61 | 1013.7 |
| 20260507185207 | 17 | 37 | 3.2 | 4.8 | 0.00 | 0.15 | 0.15 | 63 | 1013.7 |
| 20260507184705 | 17 | 58 | 3.2 | 3.2 | 0.00 | 0.15 | 0.15 | 64 | 1013.8 |
| 20260507184203 | 18 | 51 | 6.4 | 6.4 | 0.00 | 0.15 | 0.15 | 61 | 1013.7 |
| 20260507183659 | 18 | 61 | 4.8 | 6.4 | 0.00 | 0.15 | 0.15 | 60 | 1013.8 |
| 20260507183156 | 17 | 48 | 4.8 | 6.4 | 0.00 | 0.15 | 0.15 | 65 | 1013.9 |
| 20260507182654 | 17 | 23 | 3.2 | 4.8 | 0.00 | 0.15 | 0.15 | 63 | 1014.0 |
| 20260507182143 | 17 | 3 | 3.2 | 6.4 | 0.00 | 0.15 | 0.15 | 63 | 1013.9 |
| 20260507181640 | 17 | 66 | 6.4 | 9.7 | 0.00 | 0.15 | 0.15 | 64 | 1014.0 |
| 20260507181136 | 17 | 105 | 8.0 | 9.7 | 0.00 | 0.15 | 0.15 | 64 | 1014.0 |
| 20260507180633 | 16 | 131 | 0.0 | 1.6 | 0.00 | 0.15 | 0.15 | 67 | 1014.0 |
| 20260507180131 | 16 | 73 | 6.4 | 9.7 | 0.00 | 0.15 | 0.15 | 68 | 1014.0 |
| 20260507175626 | 16 | 96 | 4.8 | 6.4 | 0.00 | 0.15 | 0.15 | 70 | 1013.9 |
| 20260507175123 | 16 | 78 | 3.2 | 3.2 | 0.00 | 0.15 | 0.15 | 69 | 1014.2 |
| 20260507174620 | 15 | 34 | 3.2 | 4.8 | 0.00 | 0.15 | 0.15 | 71 | 1013.8 |
| 20260507174119 | 15 | 90 | 3.2 | 4.8 | 0.00 | 0.15 | 0.15 | 67 | 1014.0 |
| 20260507173615 | 16 | 54 | 8.0 | 12.9 | 0.00 | 0.15 | 0.15 | 67 | 1014.0 |
| 20260507173112 | 16 | 60 | 1.6 | 3.2 | 0.00 | 0.15 | 0.15 | 69 | 1013.9 |
| 20260507172608 | 16 | 101 | 3.2 | 3.2 | 0.00 | 0.15 | 0.15 | 67 | 1013.9 |
| 20260507172106 | 16 | 126 | 0.0 | 1.6 | 0.00 | 0.15 | 0.15 | 66 | 1013.9 |
| 20260507171600 | 16 | 50 | 6.4 | 9.7 | 0.00 | 0.15 | 0.15 | 64 | 1014.1 |
| 20260507171058 | 16 | 117 | 4.8 | 6.4 | 0.00 | 0.15 | 0.15 | 65 | 1014.1 |
| 20260507170555 | 15 | 40 | 1.6 | 1.6 | 0.00 | 0.15 | 0.15 | 65 | 1014.2 |
| 20260507170052 | 15 | 54 | 1.6 | 3.2 | 0.00 | 0.15 | 0.15 | 72 | 1014.2 |
| 20260507165547 | 15 | 24 | 4.8 | 4.8 | 0.00 | 0.15 | 0.15 | 71 | 1014.2 |
| 20260507165044 | 14 | 98 | 6.4 | 6.4 | 0.00 | 0.15 | 0.15 | 72 | 1014.4 |
| 20260507164540 | 15 | 68 | 4.8 | 6.4 | 0.00 | 0.15 | 0.15 | 71 | 1014.4 |
| 20260507164037 | 15 | 66 | 0.0 | 0.0 | 0.00 | 0.15 | 0.15 | 69 | 1014.5 |
| 20260507163534 | 15 | 88 | 3.2 | 4.8 | 0.00 | 0.15 | 0.15 | 72 | 1014.5 |
| 20260507163032 | 13 | 94 | 3.2 | 3.2 | 0.00 | 0.15 | 0.15 | 73 | 1014.6 |
| 20260507162526 | 13 | 102 | 3.2 | 4.8 | 0.00 | 0.15 | 0.15 | 75 | 1014.7 |
| 20260507162023 | 13 | 75 | 3.2 | 3.2 | 0.00 | 0.15 | 0.15 | 77 | 1014.7 |
| 20260507161520 | 13 | 116 | 1.6 | 3.2 | 0.00 | 0.15 | 0.15 | 77 | 1015.0 |
| 20260507161017 | 13 | 138 | 3.2 | 4.8 | 0.00 | 0.15 | 0.15 | 74 | 1014.9 |
| 20260507160512 | 14 | 40 | 1.6 | 1.6 | 0.00 | 0.15 | 0.15 | 75 | 1014.9 |
| 20260507160009 | 14 | 58 | 0.0 | 1.6 | 0.00 | 0.15 | 0.15 | 74 | 1014.8 |
| 20260507155504 | 13 | 58 | 0.0 | 1.6 | 0.00 | 0.15 | 0.15 | 76 | 1014.9 |
| 20260507155002 | 13 | 97 | 1.6 | 1.6 | 0.00 | 0.15 | 0.15 | 77 | 1014.8 |
| 20260507154458 | 13 | 112 | 6.4 | 6.4 | 0.00 | 0.15 | 0.15 | 76 | 1014.7 |
| 20260507153955 | 13 | 86 | 1.6 | 1.6 | 0.00 | 0.15 | 0.15 | 79 | 1014.9 |
| 20260507153452 | 12 | 76 | 0.0 | 1.6 | 0.00 | 0.15 | 0.15 | 80 | 1014.9 |
| 20260507152949 | 11 | 75 | 0.0 | 0.0 | 0.00 | 0.15 | 0.15 | 87 | 1014.8 |
| 20260507152444 | 10 | 75 | 0.0 | 0.0 | 0.00 | 0.15 | 0.15 | 88 | 1014.7 |
| 20260507151941 | 10 | 75 | 0.0 | 1.6 | 0.00 | 0.15 | 0.15 | 88 | 1014.7 |
| 20260507151437 | 10 | 76 | 1.6 | 1.6 | 0.00 | 0.15 | 0.15 | 88 | 1014.6 |
| 20260507150934 | 10 | 77 | 0.0 | 0.0 | 0.00 | 0.15 | 0.15 | 89 | 1014.4 |
| 20260507150431 | 10 | 83 | 0.0 | 0.0 | 0.00 | 0.15 | 0.15 | 89 | 1014.4 |
| 20260507145927 | 10 | 83 | 0.0 | 0.0 | 0.00 | 0.15 | 0.15 | 90 | 1014.4 |
| 20260507145423 | 10 | 84 | 0.0 | 1.6 | 0.00 | 0.15 | 0.15 | 89 | 1014.5 |
| 20260507144920 | 10 | 98 | 0.0 | 0.0 | 0.00 | 0.15 | 0.15 | 88 | 1014.4 |
| 20260507144417 | 10 | 76 | 0.0 | 1.6 | 0.00 | 0.15 | 0.15 | 89 | 1014.4 |
| 20260507143914 | 9 | 73 | 0.0 | 1.6 | 0.00 | 0.15 | 0.15 | 91 | 1014.2 |
| 20260507143412 | 9 | 77 | 0.0 | 0.0 | 0.00 | 0.15 | 0.15 | 91 | 1014.0 |
| 20260507142908 | 9 | 93 | 0.0 | 0.0 | 0.00 | 0.15 | 0.15 | 91 | 1013.9 |
| 20260507142404 | 9 | 95 | 0.0 | 0.0 | 0.00 | 0.15 | 0.15 | 91 | 1013.9 |
| 20260507141901 | 9 | 64 | 1.6 | 1.6 | 0.00 | 0.15 | 0.15 | 92 | 1013.8 |
| 20260507141357 | 8 | 42 | 0.0 | 0.0 | 0.00 | 0.15 | 0.15 | 93 | 1013.8 |
| 20260507140854 | 8 | 288 | 0.0 | 1.6 | 0.00 | 0.15 | 0.15 | 94 | 1014.0 |
| 20260507140351 | 8 | 289 | 0.0 | 0.0 | 0.00 | 0.15 | 0.15 | 94 | 1013.9 |
| 20260507135849 | 8 | 288 | 1.6 | 1.6 | 0.00 | 0.15 | 0.15 | 94 | 1013.9 |
| 20260507135345 | 8 | 288 | 0.0 | 0.0 | 0.00 | 0.15 | 0.15 | 94 | 1013.8 |
| 20260507134843 | 7 | 284 | 1.6 | 1.6 | 0.00 | 0.15 | 0.15 | 94 | 1013.7 |
| 20260507134339 | 7 | 316 | 1.6 | 1.6 | 0.00 | 0.15 | 0.15 | 95 | 1013.7 |
| 20260507133835 | 7 | 256 | 1.6 | 1.6 | 0.00 | 0.15 | 0.15 | 95 | 1013.6 |
| 20260507133330 | 7 | 294 | 0.0 | 1.6 | 0.00 | 0.15 | 0.15 | 95 | 1013.6 |
| 20260507132829 | 7 | 281 | 1.6 | 1.6 | 0.00 | 0.15 | 0.15 | 95 | 1013.5 |
| 20260507132325 | 7 | 275 | 3.2 | 3.2 | 0.00 | 0.15 | 0.15 | 95 | 1013.3 |
| 20260507131823 | 7 | 278 | 1.6 | 3.2 | 0.00 | 0.15 | 0.15 | 95 | 1013.5 |
| 20260507131319 | 7 | 296 | 1.6 | 3.2 | 0.00 | 0.15 | 0.15 | 95 | 1013.3 |
| 20260507130816 | 7 | 298 | 1.6 | 3.2 | 0.00 | 0.15 | 0.15 | 95 | 1013.3 |
| 20260507130313 | 6 | 284 | 3.2 | 3.2 | 0.00 | 0.15 | 0.15 | 95 | 1013.3 |
| 20260507125812 | 6 | 279 | 4.8 | 4.8 | 0.00 | 0.15 | 0.15 | 95 | 1013.1 |
| 20260507125309 | 6 | 271 | 3.2 | 3.2 | 0.00 | 0.15 | 0.15 | 95 | 1013.1 |
| 20260507124806 | 6 | 288 | 3.2 | 3.2 | 0.00 | 0.15 | 0.15 | 95 | 1013.1 |
| 20260507124302 | 6 | 277 | 3.2 | 3.2 | 0.00 | 0.15 | 0.15 | 95 | 1013.1 |
| 20260507123801 | 6 | 278 | 3.2 | 3.2 | 0.00 | 0.15 | 0.15 | 95 | 1013.0 |
| 20260507123258 | 6 | 274 | 3.2 | 3.2 | 0.00 | 0.15 | 0.15 | 95 | 1013.0 |
| 20260507122754 | 6 | 282 | 3.2 | 3.2 | 0.00 | 0.15 | 0.15 | 95 | 1013.1 |
| 20260507122249 | 6 | 264 | 3.2 | 3.2 | 0.00 | 0.15 | 0.15 | 95 | 1012.8 |
| 20260507121746 | 6 | 322 | 3.2 | 3.2 | 0.00 | 0.15 | 0.15 | 95 | 1012.9 |
| 20260507121241 | 6 | 277 | 1.6 | 1.6 | 0.00 | 0.15 | 0.15 | 95 | 1012.8 |
| 20260507120738 | 6 | 298 | 3.2 | 3.2 | 0.00 | 0.15 | 0.15 | 95 | 1012.9 |
| 20260507120235 | 6 | 262 | 0.0 | 1.6 | 0.00 | 0.15 | 0.15 | 94 | 1012.8 |
| 20260507115731 | 6 | 262 | 1.6 | 1.6 | 0.00 | 0.15 | 0.15 | 94 | 1012.8 |
| 20260507115227 | 7 | 261 | 3.2 | 3.2 | 0.00 | 0.15 | 0.15 | 93 | 1012.4 |
| 20260507114722 | 7 | 274 | 3.2 | 3.2 | 0.00 | 0.15 | 0.15 | 93 | 1012.8 |
| 20260507114220 | 7 | 277 | 4.8 | 4.8 | 0.00 | 0.15 | 0.15 | 94 | 1012.7 |
| 20260507113718 | 7 | 300 | 1.6 | 3.2 | 0.00 | 0.15 | 0.15 | 94 | 1012.7 |
| 20260507113214 | 7 | 307 | 3.2 | 3.2 | 0.00 | 0.15 | 0.15 | 94 | 1012.6 |
| 20260507112712 | 7 | 291 | 3.2 | 4.8 | 0.00 | 0.15 | 0.15 | 94 | 1012.5 |
| 20260507112209 | 7 | 271 | 4.8 | 4.8 | 0.00 | 0.15 | 0.15 | 94 | 1012.7 |
| 20260507111706 | 7 | 279 | 4.8 | 4.8 | 0.00 | 0.15 | 0.15 | 94 | 1012.7 |
| 20260507111203 | 7 | 271 | 4.8 | 4.8 | 0.00 | 0.15 | 0.15 | 95 | 1012.7 |
| 20260507110658 | 7 | 277 | 4.8 | 4.8 | 0.00 | 0.15 | 0.15 | 95 | 1012.6 |
| 20260507110156 | 7 | 278 | 4.8 | 4.8 | 0.00 | 0.15 | 0.15 | 95 | 1012.6 |
| 20260507105652 | 7 | 283 | 4.8 | 4.8 | 0.00 | 0.15 | 0.15 | 95 | 1012.6 |
| 20260507105148 | 7 | 283 | 3.2 | 3.2 | 0.00 | 0.15 | 0.15 | 95 | 1012.6 |
| 20260507104646 | 8 | 279 | 4.8 | 4.8 | 0.00 | 0.15 | 0.15 | 95 | 1012.6 |
| 20260507104142 | 8 | 282 | 4.8 | 4.8 | 0.00 | 0.15 | 0.15 | 94 | 1012.5 |
| 20260507103638 | 8 | 262 | 3.2 | 3.2 | 0.00 | 0.15 | 0.15 | 94 | 1012.6 |
| 20260507103135 | 8 | 290 | 3.2 | 3.2 | 0.00 | 0.15 | 0.15 | 94 | 1012.6 |
| 20260507102632 | 8 | 278 | 1.6 | 3.2 | 0.00 | 0.15 | 0.15 | 94 | 1012.4 |
| 20260507102128 | 8 | 269 | 3.2 | 3.2 | 0.00 | 0.15 | 0.15 | 94 | 1012.3 |
| 20260507101624 | 9 | 284 | 3.2 | 3.2 | 0.00 | 0.15 | 0.15 | 94 | 1012.5 |
| 20260507101120 | 9 | 276 | 3.2 | 3.2 | 0.00 | 0.15 | 0.15 | 94 | 1012.5 |
| 20260507100617 | 9 | 273 | 3.2 | 3.2 | 0.00 | 0.15 | 0.15 | 94 | 1012.5 |
| 20260507100115 | 9 | 296 | 1.6 | 1.6 | 0.00 | 0.15 | 0.15 | 94 | 1012.6 |
| 20260507095613 | 9 | 255 | 1.6 | 1.6 | 0.00 | 0.15 | 0.15 | 94 | 1012.5 |
| 20260507095109 | 9 | 250 | 1.6 | 1.6 | 0.00 | 0.15 | 0.15 | 94 | 1012.6 |
| 20260507094605 | 9 | 272 | 1.6 | 1.6 | 0.00 | 0.15 | 0.15 | 93 | 1012.5 |
| 20260507094103 | 10 | 286 | 3.2 | 3.2 | 0.00 | 0.15 | 0.15 | 93 | 1012.4 |
| 20260507093600 | 10 | 273 | 3.2 | 3.2 | 0.00 | 0.15 | 0.15 | 93 | 1012.4 |
| 20260507093059 | 10 | 262 | 3.2 | 4.8 | 0.00 | 0.15 | 0.15 | 93 | 1012.6 |
| 20260507092555 | 10 | 29 | 0.0 | 1.6 | 0.00 | 0.15 | 0.15 | 94 | 1012.4 |
| 20260507092051 | 10 | 29 | 0.0 | 0.0 | 0.00 | 0.15 | 0.15 | 93 | 1012.3 |
| 20260507091548 | 10 | 274 | 3.2 | 3.2 | 0.00 | 0.15 | 0.15 | 93 | 1012.7 |
| 20260507091044 | 10 | 264 | 4.8 | 4.8 | 0.00 | 0.15 | 0.15 | 93 | 1012.8 |
| 20260507090540 | 10 | 251 | 3.2 | 3.2 | 0.13 | 0.15 | 0.15 | 92 | 1012.8 |
| 20260507090037 | 10 | 18 | 0.0 | 1.6 | 0.13 | 0.15 | 0.15 | 92 | 1012.8 |
| 20260507085534 | 10 | 348 | 1.6 | 1.6 | 0.00 | 0.13 | 0.13 | 91 | 1012.7 |
| 20260507085031 | 10 | 278 | 3.2 | 4.8 | 0.00 | 0.13 | 0.13 | 91 | 1012.9 |
| 20260507084528 | 10 | 271 | 3.2 | 3.2 | 0.00 | 0.13 | 0.13 | 91 | 1012.8 |
| 20260507084025 | 10 | 289 | 3.2 | 3.2 | 0.00 | 0.13 | 0.13 | 91 | 1012.9 |
| 20260507083521 | 10 | 296 | 3.2 | 3.2 | 0.00 | 0.13 | 0.13 | 92 | 1012.9 |
| 20260507083018 | 10 | 240 | 0.0 | 1.6 | 0.00 | 0.13 | 0.13 | 91 | 1012.8 |
| 20260507082514 | 10 | 243 | 1.6 | 1.6 | 0.00 | 0.13 | 0.13 | 89 | 1012.8 |
| 20260507082010 | 10 | 293 | 1.6 | 1.6 | 0.00 | 0.13 | 0.13 | 89 | 1012.6 |
| 20260507081507 | 10 | 342 | 1.6 | 1.6 | 0.00 | 0.13 | 0.13 | 89 | 1012.8 |
| 20260507081004 | 10 | 297 | 3.2 | 4.8 | 0.00 | 0.13 | 0.13 | 87 | 1012.8 |
| 20260507080459 | 10 | 160 | 4.8 | 4.8 | 0.00 | 0.13 | 0.13 | 89 | 1012.5 |
| 20260507075955 | 10 | 355 | 1.6 | 1.6 | 0.00 | 0.13 | 0.13 | 90 | 1012.3 |
| 20260507075452 | 10 | 154 | 4.8 | 4.8 | 0.00 | 0.13 | 0.13 | 90 | 1012.3 |
| 20260507074948 | 10 | 16 | 0.0 | 1.6 | 0.00 | 0.13 | 0.13 | 88 | 1012.0 |
| 20260507074445 | 10 | 11 | 0.0 | 0.0 | 0.00 | 0.13 | 0.13 | 90 | 1011.5 |
| 20260507073943 | 10 | 70 | 0.0 | 0.0 | 0.00 | 0.13 | 0.13 | 90 | 1011.3 |
| 20260507073439 | 11 | 298 | 0.0 | 0.0 | 0.00 | 0.13 | 0.13 | 87 | 1011.3 |
| 20260507072936 | 10 | 348 | 3.2 | 3.2 | 0.13 | 0.13 | 0.13 | 87 | 1011.4 |
| 20260507072434 | 11 | 300 | 1.6 | 1.6 | 0.30 | 0.13 | 0.13 | 86 | 1011.5 |
| 20260507071931 | 11 | 101 | 3.2 | 3.2 | 0.30 | 0.10 | 0.10 | 84 | 1011.8 |
| 20260507071429 | 11 | 281 | 6.4 | 6.4 | 0.23 | 0.08 | 0.08 | 81 | 1012.2 |
| 20260507070925 | 12 | 288 | 4.8 | 4.8 | 0.30 | 0.05 | 0.05 | 80 | 1012.2 |
| 20260507070422 | 11 | 290 | 3.2 | 3.2 | 0.18 | 0.03 | 0.03 | 76 | 1011.8 |
| 20260507065918 | 10 | 32 | 0.0 | 1.6 | 0.00 | 0.00 | 0.00 | 85 | 1012.0 |
| 20260507065415 | 10 | 316 | 4.8 | 4.8 | 0.00 | 0.00 | 0.00 | 89 | 1011.9 |
| 20260507064912 | 10 | 337 | 3.2 | 4.8 | 0.00 | 0.00 | 0.00 | 90 | 1011.9 |
| 20260507064410 | 10 | 314 | 3.2 | 4.8 | 0.00 | 0.00 | 0.00 | 89 | 1011.9 |
| 20260507063908 | 10 | 329 | 1.6 | 3.2 | 0.00 | 0.00 | 0.00 | 88 | 1012.0 |
| 20260507063405 | 10 | 338 | 1.6 | 1.6 | 0.00 | 0.00 | 0.00 | 88 | 1012.0 |
| 20260507062902 | 10 | 243 | 4.8 | 6.4 | 0.00 | 0.00 | 0.00 | 88 | 1011.9 |
| 20260507062359 | 10 | 307 | 6.4 | 6.4 | 0.00 | 0.00 | 0.00 | 88 | 1011.9 |
| 20260507061856 | 10 | 260 | 3.2 | 4.8 | 0.00 | 0.00 | 0.00 | 88 | 1011.9 |
| 20260507061354 | 10 | 354 | 0.0 | 0.0 | 0.00 | 0.00 | 0.00 | 86 | 1011.9 |
| 20260507060853 | 10 | 295 | 1.6 | 1.6 | 0.00 | 0.00 | 0.00 | 85 | 1011.9 |
| 20260507060349 | 11 | 1 | 0.0 | 0.0 | 0.00 | 0.00 | 0.00 | 82 | 1011.6 |
| 20260507055846 | 11 | 1 | 1.6 | 1.6 | 0.00 | 0.05 | 0.05 | 82 | 1011.4 |
| 20260507055340 | 10 | 333 | 1.6 | 1.6 | 0.00 | 0.05 | 0.05 | 84 | 1011.4 |
| 20260507054838 | 10 | 228 | 3.2 | 3.2 | 0.00 | 0.05 | 0.05 | 88 | 1011.2 |
| 20260507054334 | 10 | 163 | 1.6 | 1.6 | 0.00 | 0.05 | 0.05 | 89 | 1011.2 |
| 20260507053831 | 10 | 254 | 3.2 | 3.2 | 0.00 | 0.05 | 0.05 | 89 | 1011.2 |
| 20260507053329 | 10 | 262 | 3.2 | 3.2 | 0.00 | 0.05 | 0.05 | 88 | 1011.3 |
| 20260507052828 | 11 | 295 | 3.2 | 4.8 | 0.00 | 0.05 | 0.05 | 87 | 1011.2 |
| 20260507052324 | 11 | 266 | 3.2 | 3.2 | 0.00 | 0.05 | 0.05 | 86 | 1010.9 |
| 20260507051822 | 10 | 281 | 3.2 | 4.8 | 0.00 | 0.05 | 0.05 | 86 | 1011.2 |
| 20260507051319 | 11 | 249 | 4.8 | 4.8 | 0.00 | 0.05 | 0.05 | 87 | 1011.4 |
| 20260507050816 | 11 | 306 | 3.2 | 3.2 | 0.00 | 0.05 | 0.05 | 83 | 1011.0 |
| 20260507050312 | 11 | 145 | 4.8 | 4.8 | 0.13 | 0.05 | 0.05 | 81 | 1011.3 |
| 20260507045809 | 12 | 319 | 6.4 | 9.7 | 0.23 | 0.05 | 0.05 | 78 | 1012.2 |
| 20260507045306 | 12 | 345 | 3.2 | 4.8 | 0.13 | 0.05 | 0.05 | 77 | 1012.3 |
| 20260507044803 | 12 | 330 | 17.7 | 22.5 | 0.23 | 0.05 | 0.05 | 72 | 1012.3 |
| 20260507044259 | 13 | 291 | 17.7 | 17.7 | 0.13 | 0.03 | 0.03 | 69 | 1012.2 |
| 20260507043755 | 16 | 300 | 9.7 | 14.5 | 0.00 | 0.00 | 0.00 | 60 | 1011.4 |
| 20260507043252 | 15 | 305 | 16.1 | 20.9 | 0.00 | 0.00 | 0.00 | 51 | 1011.6 |
| 20260507042748 | 11 | 273 | 11.3 | 14.5 | 0.00 | 0.00 | 0.00 | 72 | 1011.6 |
| 20260507042243 | 11 | 279 | 6.4 | 6.4 | 0.00 | 0.00 | 0.00 | 76 | 1011.3 |
| 20260507041741 | 11 | 284 | 4.8 | 4.8 | 0.00 | 0.00 | 0.00 | 76 | 1010.8 |
| 20260507041237 | 11 | 272 | 3.2 | 3.2 | 0.00 | 0.00 | 0.00 | 77 | 1010.6 |
| 20260507040735 | 11 | 270 | 4.8 | 4.8 | 0.00 | 0.00 | 0.00 | 75 | 1010.7 |
| 20260507040230 | 11 | 270 | 6.4 | 6.4 | 0.00 | 0.00 | 0.00 | 73 | 1010.8 |
| 20260507035727 | 11 | 280 | 6.4 | 6.4 | 0.00 | 0.00 | 0.00 | 74 | 1010.8 |
| 20260507035222 | 11 | 274 | 4.8 | 4.8 | 0.00 | 0.00 | 0.00 | 74 | 1010.9 |
| 20260507034720 | 12 | 273 | 4.8 | 4.8 | 0.00 | 0.00 | 0.00 | 73 | 1010.7 |
| 20260507034217 | 11 | 347 | 0.0 | 1.6 | 0.00 | 0.00 | 0.00 | 72 | 1010.8 |
| 20260507033715 | 11 | 285 | 1.6 | 1.6 | 0.00 | 0.00 | 0.00 | 74 | 1010.8 |
| 20260507033212 | 11 | 249 | 4.8 | 4.8 | 0.00 | 0.00 | 0.00 | 74 | 1010.7 |
| 20260507032710 | 11 | 302 | 1.6 | 1.6 | 0.00 | 0.00 | 0.00 | 72 | 1010.8 |
| 20260507032205 | 11 | 276 | 4.8 | 4.8 | 0.00 | 0.00 | 0.00 | 74 | 1010.8 |
| 20260507031702 | 11 | 276 | 6.4 | 6.4 | 0.00 | 0.00 | 0.00 | 74 | 1010.7 |
| 20260507031159 | 12 | 288 | 3.2 | 4.8 | 0.00 | 0.00 | 0.00 | 72 | 1010.7 |
| 20260507030656 | 12 | 272 | 6.4 | 6.4 | 0.00 | 0.00 | 0.00 | 72 | 1010.6 |
| 20260507030154 | 12 | 281 | 4.8 | 4.8 | 0.00 | 0.00 | 0.00 | 72 | 1010.5 |
| 20260507025651 | 12 | 282 | 4.8 | 4.8 | 0.00 | 0.00 | 0.00 | 72 | 1010.6 |
| 20260507025147 | 12 | 276 | 4.8 | 4.8 | 0.00 | 0.00 | 0.00 | 71 | 1010.6 |
| 20260507024646 | 13 | 278 | 3.2 | 3.2 | 0.00 | 0.00 | 0.00 | 70 | 1010.5 |
| 20260507024143 | 13 | 269 | 3.2 | 3.2 | 0.00 | 0.00 | 0.00 | 69 | 1010.4 |
| 20260507023638 | 13 | 326 | 1.6 | 1.6 | 0.00 | 0.00 | 0.00 | 67 | 1010.4 |
| 20260507023136 | 13 | 287 | 3.2 | 3.2 | 0.00 | 0.00 | 0.00 | 68 | 1010.5 |
| 20260507022632 | 13 | 272 | 3.2 | 3.2 | 0.00 | 0.00 | 0.00 | 68 | 1010.3 |
| 20260507022128 | 14 | 272 | 3.2 | 3.2 | 0.00 | 0.00 | 0.00 | 68 | 1010.3 |
| 20260507021624 | 14 | 275 | 3.2 | 3.2 | 0.00 | 0.00 | 0.00 | 67 | 1010.5 |
| 20260507021120 | 14 | 285 | 4.8 | 4.8 | 0.00 | 0.00 | 0.00 | 66 | 1010.4 |
| 20260507020619 | 15 | 264 | 4.8 | 4.8 | 0.00 | 0.00 | 0.00 | 68 | 1010.3 |
| 20260507020114 | 15 | 258 | 4.8 | 4.8 | 0.00 | 0.00 | 0.00 | 66 | 1010.4 |
| 20260507015613 | 15 | 287 | 3.2 | 3.2 | 0.00 | 0.00 | 0.00 | 67 | 1010.5 |
| 20260507015110 | 15 | 286 | 3.2 | 3.2 | 0.00 | 0.00 | 0.00 | 64 | 1010.4 |